Woodbury, Minnesota
Current Conditions -  °F | °C
As of 8:53 PM on Friday 21 Nov 2014 (Local Time) from KSTP Reporting Station
Clear Clear  
Wind Chill: 21°   Ceiling: Unl
Heat Index: 29°   Visibility: 10mi
Dew Point: 23°   Wind: 8mph
Humidity: 78%   Direction: 160°SSE
Pressure: 29.93"   Gusts: NA
Location:  44.92°N, 92.94°W
Report Text: KSTP 220253Z 16007KT 10SM CLR M02/M05 A2993 RMK AO2 SLP147 T10171050 58023
Loading
Personal Weather Stations






























Interactive Weather Map New forecast layout! Learn more

10-Day Weather Forecast

Advertisements
Track Severe Weather on mobile